Time;durP1;ratioP1;P1;durP2;ratioP2;P2;SDS_P1;SDS_P2;PMS_P1;PMS_P2;Temp;Humidity;BMP_temperature;BMP_pressure;BME280_temperature;BME280_humidity;BME280_pressure;Samples;Min_cycle;Max_cycle;Signal;HPM_P1;HPM_P2
2021/05/19 00:01:14;;;;;;;13.98;7.22;;;12.60;98.00;;;;;;4953785;28;20035;-76
2021/05/19 00:03:39;;;;;;;12.05;6.63;;;12.50;98.00;;;;;;4953327;28;20035;-77
2021/05/19 00:06:05;;;;;;;13.88;6.70;;;12.50;98.00;;;;;;4953451;28;20352;-78
2021/05/19 00:08:31;;;;;;;9.05;6.13;;;12.60;98.00;;;;;;4955099;28;20369;-78
2021/05/19 00:10:56;;;;;;;10.10;6.60;;;12.60;98.00;;;;;;4953409;28;20119;-78
2021/05/19 00:13:26;;;;;;;9.43;6.45;;;12.60;97.90;;;;;;4953273;28;20181;-78
2021/05/19 00:15:52;;;;;;;9.55;6.88;;;12.50;97.90;;;;;;4952398;28;20039;-76
2021/05/19 00:18:17;;;;;;;9.00;6.47;;;12.60;98.00;;;;;;4953500;28;20023;-76
2021/05/19 00:20:43;;;;;;;8.85;6.35;;;12.60;97.80;;;;;;4955075;28;20024;-75
2021/05/19 00:23:08;;;;;;;13.57;7.15;;;12.70;97.80;;;;;;4952250;28;20038;-77
2021/05/19 00:25:34;;;;;;;8.25;5.60;;;12.60;97.70;;;;;;4952698;28;20046;-77
2021/05/19 00:27:59;;;;;;;12.15;6.68;;;12.70;97.60;;;;;;4953120;28;20349;-77
2021/05/19 00:30:25;;;;;;;11.25;6.70;;;12.70;97.70;;;;;;4952903;28;20058;-78
2021/05/19 00:32:51;;;;;;;12.35;6.22;;;12.70;97.60;;;;;;4954520;29;20034;-77
2021/05/19 00:35:16;;;;;;;11.57;6.10;;;12.70;97.50;;;;;;4952957;28;20053;-77
2021/05/19 00:37:42;;;;;;;11.30;6.43;;;12.70;97.60;;;;;;4953074;28;20039;-77
2021/05/19 00:40:09;;;;;;;9.50;6.15;;;12.70;97.50;;;;;;4967925;28;20477;-77
2021/05/19 00:42:35;;;;;;;9.48;6.15;;;12.70;97.50;;;;;;4952894;28;20373;-77
2021/05/19 00:45:11;;;;;;;9.85;6.53;;;12.70;97.50;;;;;;4951679;28;20027;-78
2021/05/19 00:47:39;;;;;;;10.80;7.03;;;12.60;97.60;;;;;;4953278;28;20061;-79
2021/05/19 00:50:08;;;;;;;11.63;7.18;;;12.40;97.90;;;;;;4952575;28;20053;-77
2021/05/19 00:52:34;;;;;;;11.30;7.32;;;12.40;98.00;;;;;;4952690;28;20065;-77
2021/05/19 00:54:59;;;;;;;12.55;7.05;;;12.50;97.90;;;;;;4952741;28;20462;-78
2021/05/19 00:57:25;;;;;;;12.02;7.18;;;12.50;97.90;;;;;;4952675;28;20296;-79
2021/05/19 00:59:51;;;;;;;14.30;7.40;;;12.50;98.00;;;;;;4953952;28;20114;-78
2021/05/19 01:02:17;;;;;;;16.95;7.57;;;12.50;98.00;;;;;;4952332;28;20040;-77
2021/05/19 01:04:43;;;;;;;13.25;7.93;;;12.70;97.90;;;;;;4952771;28;20134;-77
2021/05/19 01:09:41;;;;;;;11.80;7.60;;;12.80;97.80;;;;;;4952501;28;20051;-78
2021/05/19 01:12:12;;;;;;;10.93;7.43;;;12.60;97.70;;;;;;4952263;28;20031;-79
2021/05/19 01:14:39;;;;;;;12.02;7.70;;;12.50;97.90;;;;;;4953855;28;20042;-78
2021/05/19 01:17:06;;;;;;;13.50;8.05;;;12.50;97.90;;;;;;4951094;28;20445;-79
2021/05/19 01:19:37;;;;;;;12.67;7.77;;;12.60;97.80;;;;;;4952101;28;20078;-77
2021/05/19 01:22:11;;;;;;;12.50;7.43;;;12.80;97.70;;;;;;4951842;28;20039;-78
2021/05/19 01:24:39;;;;;;;9.35;6.78;;;12.70;97.70;;;;;;4952416;28;20047;-77
2021/05/19 01:27:05;;;;;;;22.15;7.88;;;12.60;97.90;;;;;;4952272;28;20442;-79
2021/05/19 01:29:31;;;;;;;11.18;7.70;;;12.70;97.80;;;;;;4954146;28;20457;-76
2021/05/19 01:31:56;;;;;;;11.40;7.75;;;12.50;97.90;;;;;;4952034;28;20067;-77
2021/05/19 01:34:22;;;;;;;12.35;7.80;;;12.60;97.80;;;;;;4952023;28;20094;-77
2021/05/19 01:36:48;;;;;;;13.75;7.68;;;12.30;98.10;;;;;;4983755;28;20027;-76
2021/05/19 01:39:13;;;;;;;11.68;7.68;;;12.40;98.10;;;;;;4990359;28;20389;-78
2021/05/19 01:41:39;;;;;;;15.27;8.82;;;12.30;98.10;;;;;;4992200;28;20030;-78
2021/05/19 01:44:11;;;;;;;11.75;7.88;;;12.40;98.20;;;;;;4984927;28;20046;-78
2021/05/19 01:46:37;;;;;;;14.07;9.00;;;12.30;98.10;;;;;;4990637;28;20514;-77
2021/05/19 01:49:05;;;;;;;10.60;7.55;;;12.40;98.10;;;;;;4990426;28;20042;-77
2021/05/19 01:51:31;;;;;;;;;;;12.40;98.00;;;;;;4990847;28;20057;-77
2021/05/19 01:53:57;;;;;;;11.95;7.82;;;12.50;98.00;;;;;;4990606;28;19921;-77
2021/05/19 01:56:23;;;;;;;12.20;7.90;;;12.40;97.90;;;;;;4991795;28;20149;-76
2021/05/19 01:58:49;;;;;;;12.00;7.78;;;12.40;97.90;;;;;;4988910;28;20038;-76
2021/05/19 02:01:14;;;;;;;12.65;7.53;;;12.40;97.90;;;;;;4990265;28;20065;-77
2021/05/19 02:03:40;;;;;;;13.00;6.85;;;12.40;97.90;;;;;;4990310;28;20081;-77
2021/05/19 02:06:05;;;;;;;14.20;7.30;;;12.30;98.00;;;;;;4990435;28;20070;-77
2021/05/19 02:08:31;;;;;;;10.20;7.00;;;12.40;97.90;;;;;;4991678;28;20081;-77
2021/05/19 02:10:56;;;;;;;9.50;6.78;;;12.50;97.90;;;;;;4989966;28;20388;-77
2021/05/19 02:13:23;;;;;;;11.57;7.15;;;12.40;97.90;;;;;;4989988;28;20185;-77
2021/05/19 02:15:48;;;;;;;10.38;7.03;;;12.40;97.90;;;;;;4990051;28;20077;-79
2021/05/19 02:18:14;;;;;;;10.50;6.93;;;12.40;97.90;;;;;;4989201;28;20408;-78
2021/05/19 02:20:40;;;;;;;11.88;6.93;;;12.40;97.90;;;;;;4991709;28;20424;-78
2021/05/19 02:23:06;;;;;;;10.68;6.70;;;12.40;98.00;;;;;;4990221;28;20084;-78
2021/05/19 02:25:32;;;;;;;10.65;6.78;;;12.40;97.90;;;;;;4988876;28;20034;-77
2021/05/19 02:27:57;;;;;;;11.18;7.05;;;12.40;97.90;;;;;;4988334;28;20054;-78
2021/05/19 02:30:25;;;;;;;14.68;7.43;;;12.50;97.90;;;;;;4989827;28;20053;-78
2021/05/19 02:32:51;;;;;;;9.38;6.43;;;12.50;98.00;;;;;;4990430;28;20065;-78
2021/05/19 02:35:17;;;;;;;11.77;7.80;;;12.50;98.00;;;;;;4989861;28;20380;-77
2021/05/19 02:37:43;;;;;;;11.45;7.43;;;12.40;98.00;;;;;;4988964;28;20038;-78
2021/05/19 02:40:10;;;;;;;11.30;7.28;;;12.30;98.00;;;;;;4990054;28;20049;-77
2021/05/19 02:42:36;;;;;;;13.43;7.72;;;12.40;98.10;;;;;;4988567;28;20046;-78
2021/05/19 02:45:05;;;;;;;11.95;7.78;;;12.40;98.10;;;;;;4989388;28;20372;-77
2021/05/19 02:47:31;;;;;;;13.77;8.05;;;12.40;98.40;;;;;;4991645;28;20199;-77
2021/05/19 02:49:56;;;;;;;12.00;7.47;;;12.40;98.10;;;;;;4989768;28;20050;-77
2021/05/19 02:52:22;;;;;;;10.43;7.40;;;12.50;98.10;;;;;;4989837;28;20045;-77
2021/05/19 02:54:48;;;;;;;12.73;8.20;;;12.50;98.10;;;;;;4989902;28;20030;-77
2021/05/19 02:57:13;;;;;;;11.82;8.32;;;12.40;98.20;;;;;;4989804;28;24107;-78
2021/05/19 02:59:39;;;;;;;13.60;8.32;;;12.50;98.20;;;;;;4991086;28;20106;-77
2021/05/19 03:02:05;;;;;;;12.35;7.82;;;12.50;98.10;;;;;;4989806;28;20046;-78
2021/05/19 03:04:30;;;;;;;12.55;7.75;;;12.50;98.20;;;;;;4989743;28;20201;-79
2021/05/19 03:06:56;;;;;;;12.90;8.15;;;12.40;98.30;;;;;;4988578;28;20042;-78
2021/05/19 03:09:22;;;;;;;12.85;8.27;;;12.40;98.30;;;;;;4989754;28;20046;-77
2021/05/19 03:11:47;;;;;;;14.93;8.43;;;12.40;98.30;;;;;;4992889;28;20034;-78
2021/05/19 03:14:14;;;;;;;18.60;9.10;;;12.30;98.40;;;;;;4993165;28;20031;-77
2021/05/19 03:16:40;;;;;;;14.07;8.10;;;12.40;98.40;;;;;;4992702;28;20403;-77
2021/05/19 03:19:07;;;;;;;13.02;7.65;;;12.50;98.30;;;;;;4992775;28;20038;-77
2021/05/19 03:21:32;;;;;;;14.48;7.90;;;12.60;98.10;;;;;;4992932;28;20112;-78
2021/05/19 03:23:58;;;;;;;12.85;8.05;;;12.70;98.00;;;;;;4993194;28;20431;-78
2021/05/19 03:26:24;;;;;;;11.30;7.22;;;12.70;97.90;;;;;;4993532;28;20648;-79
2021/05/19 03:28:50;;;;;;;14.13;7.68;;;12.60;97.90;;;;;;4991603;28;20062;-77
2021/05/19 03:31:16;;;;;;;12.15;7.78;;;12.70;97.90;;;;;;4991858;28;20057;-77
2021/05/19 03:33:42;;;;;;;11.25;8.05;;;12.60;97.90;;;;;;4991546;28;20053;-78
2021/05/19 03:36:08;;;;;;;12.82;8.38;;;12.60;98.00;;;;;;4992876;28;20026;-78
2021/05/19 03:38:36;;;;;;;12.18;8.10;;;12.70;98.00;;;;;;4994309;28;20023;-76
2021/05/19 03:41:04;;;;;;;15.32;8.25;;;12.70;98.00;;;;;;4992803;28;20068;-77
2021/05/19 03:43:29;;;;;;;15.05;8.45;;;12.70;97.90;;;;;;4992825;28;20037;-77
2021/05/19 03:45:55;;;;;;;14.15;8.20;;;12.70;97.90;;;;;;4992827;28;20355;-77
2021/05/19 03:48:21;;;;;;;18.88;8.25;;;12.60;97.90;;;;;;4992384;28;20038;-77
2021/05/19 03:50:46;;;;;;;17.70;8.02;;;12.70;97.90;;;;;;4994313;28;20022;-77
2021/05/19 03:53:12;;;;;;;13.98;8.38;;;12.70;97.90;;;;;;4992768;28;20523;-79
2021/05/19 03:55:38;;;;;;;13.50;8.52;;;12.60;97.90;;;;;;4992535;28;20034;-78
2021/05/19 03:58:04;;;;;;;12.95;7.82;;;12.40;98.10;;;;;;4991166;28;20118;-79
2021/05/19 04:00:34;;;;;;;11.43;7.60;;;12.50;98.00;;;;;;4992201;28;20157;-78
2021/05/19 04:03:00;;;;;;;16.30;8.65;;;12.50;97.90;;;;;;4992160;28;20014;-77
2021/05/19 04:05:27;;;;;;;16.30;9.38;;;12.50;98.00;;;;;;4993957;28;20101;-76
2021/05/19 04:07:54;;;;;;;11.90;8.30;;;12.40;98.20;;;;;;4992144;28;20042;-77
2021/05/19 04:10:21;;;;;;;15.17;8.87;;;12.40;98.20;;;;;;4991145;28;20050;-77
2021/05/19 04:12:48;;;;;;;14.77;9.55;;;12.40;98.10;;;;;;4992169;28;20042;-78
2021/05/19 04:15:14;;;;;;;15.63;9.10;;;12.50;98.10;;;;;;4991181;28;20026;-78
2021/05/19 04:17:40;;;;;;;12.93;8.30;;;12.30;98.30;;;;;;4993669;28;20035;-78
2021/05/19 04:20:06;;;;;;;14.52;8.88;;;12.30;98.50;;;;;;4991930;28;20468;-76
2021/05/19 04:22:32;;;;;;;14.07;8.73;;;12.20;98.60;;;;;;4991865;28;20034;-78
2021/05/19 04:24:57;;;;;;;13.35;9.25;;;12.20;98.70;;;;;;4990420;28;20030;-77
2021/05/19 04:27:23;;;;;;;19.33;10.32;;;12.20;98.70;;;;;;4992156;28;20460;-78
2021/05/19 04:29:49;;;;;;;19.52;9.43;;;12.30;98.70;;;;;;4993202;28;20034;-78
2021/05/19 04:32:14;;;;;;;15.43;10.23;;;12.40;98.60;;;;;;4991467;28;20527;-76
2021/05/19 04:34:40;;;;;;;19.92;10.30;;;12.40;98.50;;;;;;5007094;28;20049;-77
2021/05/19 04:37:06;;;;;;;17.83;10.48;;;12.40;98.60;;;;;;4991923;28;20388;-77
2021/05/19 04:39:32;;;;;;;19.17;10.35;;;12.50;98.40;;;;;;4991660;28;20471;-78
2021/05/19 04:41:58;;;;;;;19.52;11.63;;;12.50;98.30;;;;;;4991745;28;20045;-78
2021/05/19 04:44:24;;;;;;;31.40;13.18;;;12.40;98.60;;;;;;4993376;28;20031;-77
2021/05/19 04:46:49;;;;;;;25.52;13.75;;;12.50;98.70;;;;;;4991688;28;20473;-77
2021/05/19 04:49:16;;;;;;;23.90;12.80;;;12.60;98.60;;;;;;4991350;28;20050;-79
2021/05/19 04:51:41;;;;;;;21.85;12.15;;;12.60;98.50;;;;;;5006954;28;20089;-79
2021/05/19 04:54:07;;;;;;;21.65;12.93;;;12.50;98.50;;;;;;4991645;28;20023;-78
2021/05/19 04:56:33;;;;;;;23.20;13.18;;;12.60;98.60;;;;;;4992940;28;20050;-80
2021/05/19 04:58:59;;;;;;;25.42;13.88;;;12.60;98.40;;;;;;4990274;28;20160;-80
2021/05/19 05:01:24;;;;;;;31.95;17.85;;;12.60;98.60;;;;;;4989713;28;20561;-78
2021/05/19 05:03:50;;;;;;;42.58;22.58;;;12.50;98.70;;;;;;4990943;28;20420;-78
2021/05/19 05:06:15;;;;;;;33.35;18.52;;;12.50;98.70;;;;;;4990070;28;20038;-77
2021/05/19 05:08:42;;;;;;;30.83;17.20;;;12.50;98.60;;;;;;4992443;28;20036;-78
2021/05/19 05:11:07;;;;;;;34.20;19.17;;;12.50;98.70;;;;;;4991022;28;20093;-78
2021/05/19 05:13:33;;;;;;;31.58;17.85;;;12.60;98.70;;;;;;4991125;28;20034;-77
2021/05/19 05:15:59;;;;;;;27.88;16.45;;;12.50;98.80;;;;;;4989754;28;20520;-77
2021/05/19 05:18:24;;;;;;;33.38;15.95;;;12.50;98.70;;;;;;4990380;28;20485;-78
2021/05/19 05:20:50;;;;;;;26.35;16.90;;;12.70;98.70;;;;;;4992184;28;20034;-79
2021/05/19 05:23:15;;;;;;;32.60;18.30;;;12.70;98.50;;;;;;4990342;28;20062;-78
2021/05/19 05:25:42;;;;;;;32.25;19.52;;;12.60;98.60;;;;;;4990661;28;20041;-79
2021/05/19 05:28:08;;;;;;;36.60;22.73;;;12.70;98.50;;;;;;4990824;28;20030;-78
2021/05/19 05:30:33;;;;;;;36.33;21.73;;;12.60;98.70;;;;;;4990620;28;20116;-79
2021/05/19 05:32:59;;;;;;;34.40;20.35;;;12.70;98.70;;;;;;5005588;28;20026;-77
2021/05/19 05:35:25;;;;;;;33.30;20.27;;;12.80;98.60;;;;;;4992016;28;20030;-77
2021/05/19 05:37:50;;;;;;;41.20;20.50;;;12.80;98.50;;;;;;4990459;28;20045;-78
2021/05/19 05:40:16;;;;;;;76.97;26.50;;;12.90;98.50;;;;;;4990372;28;20057;-77
2021/05/19 05:42:42;;;;;;;50.10;22.98;;;12.90;98.30;;;;;;4992154;28;20048;-77
2021/05/19 05:45:08;;;;;;;47.80;23.63;;;13.00;98.40;;;;;;4990513;28;20018;-78
2021/05/19 05:47:35;;;;;;;32.85;16.88;;;13.10;98.30;;;;;;4993390;28;20116;-78
2021/05/19 05:50:03;;;;;;;24.83;15.88;;;13.10;98.00;;;;;;4990788;28;20041;-77
2021/05/19 05:52:29;;;;;;;;;;;13.20;98.00;;;;;;4991665;28;20049;-77
2021/05/19 05:54:55;;;;;;;28.90;17.80;;;13.20;98.20;;;;;;4990359;28;19917;-77
2021/05/19 05:57:21;;;;;;;32.03;18.52;;;13.30;98.30;;;;;;4991038;28;20031;-77
2021/05/19 05:59:46;;;;;;;28.90;17.63;;;13.40;97.90;;;;;;4992926;28;20030;-80
2021/05/19 06:02:12;;;;;;;26.85;16.73;;;13.50;97.80;;;;;;5007787;28;20084;-80
2021/05/19 06:04:39;;;;;;;24.42;15.45;;;13.80;97.60;;;;;;5002705;28;20054;-78
2021/05/19 06:07:05;;;;;;;34.80;17.52;;;13.80;97.20;;;;;;4980728;28;20049;-78
2021/05/19 06:09:30;;;;;;;29.85;15.80;;;13.90;97.30;;;;;;4989108;28;20038;-79
2021/05/19 06:11:56;;;;;;;31.67;14.50;;;14.10;96.90;;;;;;4990179;28;20144;-78
2021/05/19 06:14:22;;;;;;;21.98;13.65;;;14.10;96.60;;;;;;4992414;28;20520;-78
2021/05/19 06:16:47;;;;;;;26.42;13.73;;;14.20;96.90;;;;;;4983246;28;20479;-76
2021/05/19 06:19:13;;;;;;;29.40;13.73;;;14.60;96.50;;;;;;4990184;28;20046;-74
2021/05/19 06:21:39;;;;;;;24.38;14.05;;;14.70;96.20;;;;;;4990140;28;20038;-76
2021/05/19 06:24:06;;;;;;;21.38;13.18;;;15.00;95.90;;;;;;5005345;28;20034;-76
2021/05/19 06:26:32;;;;;;;21.13;12.20;;;15.00;95.40;;;;;;4991826;28;20377;-79
2021/05/19 06:28:58;;;;;;;25.38;14.30;;;15.00;95.40;;;;;;4989975;28;20058;-79
2021/05/19 06:31:24;;;;;;;22.58;14.73;;;14.70;95.30;;;;;;4990205;28;20443;-77
2021/05/19 06:33:49;;;;;;;24.52;14.60;;;14.60;95.40;;;;;;4990785;28;20044;-79
2021/05/19 06:36:15;;;;;;;21.20;13.40;;;14.60;95.60;;;;;;4990374;28;20030;-77
2021/05/19 06:38:41;;;;;;;23.52;13.25;;;14.80;95.60;;;;;;4992222;28;20038;-79
2021/05/19 06:41:06;;;;;;;18.75;11.65;;;15.10;95.30;;;;;;4989693;28;20377;-80
2021/05/19 06:43:32;;;;;;;24.95;13.27;;;15.30;95.20;;;;;;4989369;28;20523;-77
2021/05/19 06:45:58;;;;;;;23.30;13.00;;;15.20;94.70;;;;;;4991067;28;20034;-77
2021/05/19 06:48:23;;;;;;;21.95;13.68;;;15.20;95.00;;;;;;4993750;28;20443;-79
2021/05/19 06:50:49;;;;;;;27.38;13.10;;;15.40;94.90;;;;;;4995017;28;20026;-78
2021/05/19 06:53:15;;;;;;;22.55;14.20;;;15.40;94.70;;;;;;4993177;28;20545;-77
2021/05/19 06:55:44;;;;;;;25.17;14.50;;;15.10;94.70;;;;;;4993311;28;20065;-79
2021/05/19 06:58:10;;;;;;;27.60;14.07;;;15.30;95.20;;;;;;4981814;28;20532;-78
2021/05/19 07:00:35;;;;;;;28.95;14.43;;;15.50;94.90;;;;;;4979311;28;20038;-77
2021/05/19 07:03:01;;;;;;;19.73;13.13;;;15.60;94.50;;;;;;4992151;28;20022;-77
2021/05/19 07:05:27;;;;;;;21.52;12.82;;;15.40;94.20;;;;;;4994732;28;20109;-77
2021/05/19 07:07:53;;;;;;;19.02;12.25;;;15.70;94.20;;;;;;4993374;28;20085;-76
2021/05/19 07:10:18;;;;;;;20.92;12.38;;;16.00;93.90;;;;;;4993420;28;20061;-76
2021/05/19 07:12:44;;;;;;;16.52;11.73;;;15.90;93.70;;;;;;4993286;28;20034;-78
2021/05/19 07:15:15;;;;;;;16.80;11.23;;;16.10;93.00;;;;;;4993132;28;20357;-77
2021/05/19 07:17:41;;;;;;;18.02;11.65;;;16.30;92.60;;;;;;4994498;28;20029;-78
2021/05/19 07:20:09;;;;;;;15.35;10.55;;;16.40;92.50;;;;;;4992747;28;20042;-76
2021/05/19 07:22:34;;;;;;;;;;;16.20;92.00;;;;;;4994029;28;20042;-78
2021/05/19 07:25:00;;;;;;;13.77;9.52;;;16.50;92.50;;;;;;5007908;28;19917;-78
2021/05/19 07:27:26;;;;;;;16.05;9.18;;;16.90;92.00;;;;;;4992114;28;20045;-77
2021/05/19 07:29:51;;;;;;;18.15;10.50;;;16.70;91.40;;;;;;4994032;28;20263;-78
2021/05/19 07:32:17;;;;;;;12.52;8.60;;;16.90;91.70;;;;;;4994930;28;20038;-79
2021/05/19 07:34:43;;;;;;;14.10;7.55;;;16.80;90.80;;;;;;4993581;28;20043;-78
2021/05/19 07:37:09;;;;;;;10.93;6.50;;;16.90;90.60;;;;;;4993112;28;20054;-78
2021/05/19 07:39:35;;;;;;;13.07;8.20;;;17.50;90.10;;;;;;4992643;28;20034;-78
2021/05/19 07:42:00;;;;;;;9.38;6.90;;;17.20;89.60;;;;;;4992474;28;20027;-78
2021/05/19 07:44:26;;;;;;;15.13;7.10;;;17.30;90.10;;;;;;4994366;28;20032;-76
2021/05/19 07:46:52;;;;;;;9.90;6.57;;;17.70;88.90;;;;;;4991502;28;20538;-77
2021/05/19 07:49:18;;;;;;;10.23;6.38;;;18.20;87.70;;;;;;4992614;28;20038;-78
2021/05/19 07:51:44;;;;;;;8.10;5.72;;;18.30;86.60;;;;;;4992140;28;20027;-76
2021/05/19 07:54:13;;;;;;;11.13;5.32;;;18.50;85.30;;;;;;4991342;28;20464;-77
2021/05/19 07:56:51;;;;;;;9.52;5.57;;;19.30;84.20;;;;;;4993768;28;20033;-78
2021/05/19 07:59:18;;;;;;;8.27;5.03;;;20.30;83.30;;;;;;4992253;28;20046;-77
2021/05/19 08:02:04;;;;;;;11.57;5.23;;;21.00;79.70;;;;;;4991085;28;20585;-78
2021/05/19 08:04:32;;;;;;;9.32;4.70;;;21.70;75.60;;;;;;4992066;28;20276;-78
2021/05/19 08:06:58;;;;;;;8.82;5.35;;;21.20;75.00;;;;;;4991783;28;20300;-75
2021/05/19 08:09:24;;;;;;;6.30;4.35;;;21.60;73.70;;;;;;4991789;28;20034;-77
2021/05/19 08:11:50;;;;;;;8.82;4.10;;;22.50;71.00;;;;;;4992412;28;20099;-76
2021/05/19 08:14:15;;;;;;;10.48;5.25;;;22.40;70.00;;;;;;4992116;28;20412;-77
2021/05/19 08:16:42;;;;;;;9.75;4.35;;;22.00;67.60;;;;;;4990919;28;20043;-78
2021/05/19 08:19:07;;;;;;;9.23;4.40;;;20.80;68.80;;;;;;4990711;28;20034;-77
2021/05/19 08:21:34;;;;;;;8.57;3.70;;;21.00;70.20;;;;;;4990792;28;20345;-77
2021/05/19 08:24:00;;;;;;;7.40;3.83;;;20.90;68.80;;;;;;4991290;28;20062;-78
2021/05/19 08:26:26;;;;;;;5.10;3.95;;;21.40;66.70;;;;;;4993117;28;20392;-78
2021/05/19 08:28:52;;;;;;;6.13;3.55;;;21.00;65.90;;;;;;4990608;28;20145;-78
2021/05/19 08:31:19;;;;;;;5.03;3.35;;;21.80;66.80;;;;;;4992093;28;20030;-77
2021/05/19 08:33:49;;;;;;;7.22;4.20;;;21.90;64.00;;;;;;4991821;28;20105;-75
2021/05/19 08:36:15;;;;;;;5.38;3.30;;;21.60;65.70;;;;;;4991269;28;20456;-75
2021/05/19 08:38:42;;;;;;;6.15;3.17;;;21.10;64.70;;;;;;4992262;28;20076;-75
2021/05/19 08:41:08;;;;;;;3.95;2.78;;;21.00;65.70;;;;;;4991579;28;20150;-76
2021/05/19 08:43:34;;;;;;;5.30;2.83;;;21.50;65.20;;;;;;4991217;28;20030;-75
2021/05/19 08:46:10;;;;;;;9.80;3.40;;;22.20;63.10;;;;;;4990047;28;20110;-77
2021/05/19 08:48:37;;;;;;;4.00;2.33;;;21.90;59.70;;;;;;4991167;28;20495;-76
2021/05/19 08:51:07;;;;;;;4.07;2.15;;;22.60;60.40;;;;;;4991500;28;20018;-77
2021/05/19 08:53:33;;;;;;;10.15;2.40;;;23.20;58.20;;;;;;4992645;28;20097;-75
2021/05/19 08:56:05;;;;;;;8.23;3.13;;;23.90;57.90;;;;;;4990710;28;20108;-76
2021/05/19 08:58:31;;;;;;;5.80;2.80;;;25.00;54.70;;;;;;4990126;28;20049;-77
2021/05/19 09:00:56;;;;;;;4.82;2.53;;;24.90;54.10;;;;;;4991071;28;20034;-78
2021/05/19 09:03:22;;;;;;;9.75;4.82;;;24.90;53.40;;;;;;4991285;28;20101;-78
2021/05/19 09:05:48;;;;;;;5.97;2.80;;;24.20;52.90;;;;;;4991718;28;20022;-77
2021/05/19 09:08:16;;;;;;;4.28;2.72;;;23.30;53.10;;;;;;4970730;28;20027;-75
2021/05/19 09:10:44;;;;;;;5.00;3.10;;;22.70;54.30;;;;;;4985639;28;20053;-75
2021/05/19 09:13:31;;;;;;;4.45;2.65;;;22.20;55.60;;;;;;4989972;28;20125;-76
2021/05/19 09:15:57;;;;;;;7.90;2.85;;;21.60;57.60;;;;;;4990568;28;20475;-76
2021/05/19 09:18:23;;;;;;;5.93;2.60;;;20.60;58.00;;;;;;4990965;28;20064;-76
2021/05/19 09:20:50;;;;;;;4.85;2.33;;;20.30;58.70;;;;;;4992963;28;20386;-76
2021/05/19 09:23:20;;;;;;;4.80;2.63;;;20.30;58.60;;;;;;4988527;28;20093;-74
2021/05/19 09:26:03;;;;;;;6.82;2.00;;;20.00;58.30;;;;;;4989413;28;20035;-76
2021/05/19 09:28:29;;;;;;;4.97;2.58;;;19.90;58.90;;;;;;4989417;28;20113;-76
2021/05/19 09:30:55;;;;;;;3.20;2.00;;;19.20;61.50;;;;;;4990314;28;20551;-74
2021/05/19 09:33:27;;;;;;;6.30;2.58;;;19.20;63.20;;;;;;4989420;28;20041;-76
2021/05/19 09:36:15;;;;;;;4.68;2.40;;;19.20;63.20;;;;;;4991059;28;20081;-76
2021/05/19 09:38:42;;;;;;;7.10;1.92;;;18.80;63.10;;;;;;4991120;28;20539;-75
2021/05/19 09:41:26;;;;;;;2.70;1.52;;;18.40;63.40;;;;;;4988543;28;20046;-75
2021/05/19 09:43:57;;;;;;;3.72;1.80;;;18.20;63.30;;;;;;4966461;28;20053;-75
2021/05/19 09:49:12;;;;;;;2.50;0.90;;;18.20;60.40;;;;;;4990406;28;20035;-78
2021/05/19 09:51:38;;;;;;;6.57;1.30;;;18.50;59.80;;;;;;4989166;28;20042;-76
2021/05/19 09:54:04;;;;;;;3.42;1.05;;;18.70;59.70;;;;;;4989224;28;20440;-76
2021/05/19 09:56:30;;;;;;;2.85;1.00;;;19.00;60.10;;;;;;4990747;28;20090;-77
2021/05/19 09:58:56;;;;;;;2.47;1.02;;;19.10;59.60;;;;;;4989733;28;20038;-76
2021/05/19 10:01:24;;;;;;;4.93;2.05;;;19.10;59.50;;;;;;4990052;28;20068;-73
2021/05/19 10:03:51;;;;;;;2.53;1.90;;;19.20;61.30;;;;;;4989587;28;20423;-76
2021/05/19 10:06:24;;;;;;;5.13;2.50;;;19.10;63.20;;;;;;4989763;28;20108;-77
2021/05/19 10:08:50;;;;;;;7.43;2.63;;;18.90;64.00;;;;;;4991748;28;20409;-77
2021/05/19 10:11:16;;;;;;;5.47;3.03;;;19.00;65.60;;;;;;4989863;28;20043;-77
2021/05/19 10:13:43;;;;;;;3.30;2.10;;;18.80;65.30;;;;;;4990172;28;20058;-78
2021/05/19 10:16:13;;;;;;;4.50;2.45;;;18.90;64.80;;;;;;4989779;28;20062;-76
2021/05/19 10:18:54;;;;;;;5.20;2.38;;;18.80;65.20;;;;;;4989761;28;20030;-77
2021/05/19 10:21:21;;;;;;;5.15;2.42;;;19.00;65.40;;;;;;4990763;28;20041;-75
2021/05/19 10:24:10;;;;;;;6.70;2.45;;;19.20;65.10;;;;;;4991322;28;20022;-77
2021/05/19 10:26:58;;;;;;;3.95;1.83;;;19.60;64.60;;;;;;4990209;28;20064;-76
2021/05/19 10:29:46;;;;;;;6.22;2.47;;;20.10;63.30;;;;;;4989854;28;20391;-77
2021/05/19 10:32:28;;;;;;;3.90;2.00;;;19.90;62.10;;;;;;4989577;28;20070;-75
2021/05/19 10:35:03;;;;;;;2.50;1.73;;;20.10;61.80;;;;;;4990955;28;20040;-75
2021/05/19 10:37:29;;;;;;;3.08;1.17;;;19.80;60.70;;;;;;4990234;28;20280;-76
2021/05/19 10:40:06;;;;;;;4.97;1.40;;;19.90;59.90;;;;;;4990088;28;20034;-79
2021/05/19 10:42:34;;;;;;;4.85;1.45;;;19.80;58.90;;;;;;4982733;28;20130;-81
2021/05/19 10:45:15;;;;;;;4.22;1.48;;;19.40;58.50;;;;;;4970427;28;20102;-75
2021/05/19 10:47:45;;;;;;;1.88;1.30;;;19.20;59.40;;;;;;4972222;28;20019;-75
2021/05/19 10:50:35;;;;;;;3.60;1.90;;;19.30;59.80;;;;;;4968749;28;20035;-75
2021/05/19 11:01:08;;;;;;;3.72;1.90;;;19.20;61.60;;;;;;4970380;28;20062;-77
2021/05/19 11:03:34;;;;;;;5.78;2.15;;;18.90;62.20;;;;;;4965620;28;20093;-76
2021/05/19 11:06:03;;;;;;;4.93;1.83;;;19.10;62.30;;;;;;4925335;28;20036;-76
2021/05/19 11:08:31;;;;;;;5.10;2.30;;;19.20;61.40;;;;;;4955439;28;20043;-75
2021/05/19 11:11:26;;;;;;;6.55;2.65;;;19.00;62.10;;;;;;4969732;28;20046;-76
2021/05/19 11:19:35;;;;;;;4.40;2.08;;;19.50;61.70;;;;;;4962293;28;20042;-74
2021/05/19 11:22:10;;;;;;;3.55;2.05;;;19.30;60.80;;;;;;4969725;28;20105;-74
2021/05/19 11:24:49;;;;;;;5.35;2.22;;;19.20;62.40;;;;;;4970193;28;20041;-74
2021/05/19 11:27:20;;;;;;;2.75;1.95;;;19.20;62.00;;;;;;4969509;28;20126;-74
2021/05/19 11:29:46;;;;;;;6.10;2.15;;;19.40;63.00;;;;;;4970857;28;20505;-75
2021/05/19 11:32:27;;;;;;;5.32;2.10;;;19.10;64.10;;;;;;4971441;28;20066;-74
2021/05/19 11:34:53;;;;;;;5.43;2.42;;;19.20;64.30;;;;;;4973071;28;20046;-76
2021/05/19 11:37:21;;;;;;;8.93;2.67;;;19.30;62.70;;;;;;4973176;28;20035;-75
2021/05/19 11:39:53;;;;;;;5.80;2.47;;;19.30;62.50;;;;;;4972969;28;20066;-74
2021/05/19 11:42:28;;;;;;;5.82;2.40;;;19.50;63.30;;;;;;4972829;28;20031;-75
2021/05/19 11:44:55;;;;;;;6.50;2.78;;;19.60;62.70;;;;;;4974577;28;20520;-75
2021/05/19 11:47:37;;;;;;;5.85;2.25;;;19.70;62.40;;;;;;4972867;28;20057;-73
2021/05/19 11:50:16;;;;;;;6.55;1.90;;;19.30;60.30;;;;;;4973108;28;20045;-75
2021/05/19 11:52:59;;;;;;;8.10;2.45;;;19.20;59.40;;;;;;4973130;28;20146;-74
2021/05/19 11:55:50;;;;;;;4.90;1.80;;;19.20;59.60;;;;;;4972653;28;20035;-75
2021/05/19 11:58:24;;;;;;;7.32;2.13;;;19.30;61.50;;;;;;4971545;28;20461;-77
2021/05/19 12:00:58;;;;;;;4.22;2.15;;;19.50;61.10;;;;;;4972278;28;20364;-74
2021/05/19 12:03:25;;;;;;;6.30;2.78;;;19.40;60.80;;;;;;4972701;28;20043;-76
2021/05/19 12:05:55;;;;;;;5.38;2.90;;;19.20;61.40;;;;;;4973298;28;20051;-75
2021/05/19 12:08:23;;;;;;;4.75;2.70;;;19.20;61.80;;;;;;4971939;28;20081;-76
2021/05/19 12:11:11;;;;;;;8.10;3.40;;;19.30;62.30;;;;;;4968478;28;20098;-76
2021/05/19 12:13:42;;;;;;;8.75;3.55;;;19.40;62.80;;;;;;4966863;28;20042;-77
2021/05/19 12:16:16;;;;;;;4.88;2.83;;;19.20;62.50;;;;;;4962306;28;20035;-77
2021/05/19 12:19:00;;;;;;;9.80;4.65;;;19.10;62.00;;;;;;4959562;28;20072;-77
2021/05/19 12:21:26;;;;;;;8.05;2.97;;;19.00;62.60;;;;;;4971040;28;20034;-77
2021/05/19 12:23:52;;;;;;;6.57;2.08;;;19.10;61.40;;;;;;4973670;28;20140;-77
2021/05/19 12:26:19;;;;;;;4.97;2.30;;;19.10;60.30;;;;;;4972541;28;20045;-78
2021/05/19 12:28:45;;;;;;;3.77;2.47;;;19.30;60.30;;;;;;4972028;28;20043;-78
2021/05/19 12:31:31;;;;;;;9.30;3.33;;;19.70;59.90;;;;;;4971063;28;20038;-77
2021/05/19 12:33:57;;;;;;;6.97;2.70;;;19.70;59.30;;;;;;4972137;28;20120;-77
2021/05/19 12:36:36;;;;;;;7.72;2.97;;;19.80;60.10;;;;;;4968239;28;20130;-76
2021/05/19 12:39:05;;;;;;;3.78;2.17;;;19.50;59.70;;;;;;4954077;28;20046;-76
2021/05/19 12:41:42;;;;;;;3.83;2.35;;;19.50;60.70;;;;;;4973857;28;20098;-76
2021/05/19 12:44:16;;;;;;;10.23;3.35;;;19.30;60.40;;;;;;4971045;28;20117;-78
2021/05/19 12:47:06;;;;;;;5.82;2.72;;;19.50;60.80;;;;;;4970925;28;20049;-76
2021/05/19 12:49:33;;;;;;;4.93;2.72;;;19.60;60.70;;;;;;4972061;28;20043;-75
2021/05/19 12:52:01;;;;;;;4.30;2.40;;;19.20;61.60;;;;;;4970889;28;20341;-77
2021/05/19 12:54:37;;;;;;;;;;;19.20;62.20;;;;;;4972002;28;20064;-76
2021/05/19 12:57:11;;;;;;;5.00;2.50;;;19.10;61.80;;;;;;4971954;28;19945;-77
2021/05/19 13:00:13;;;;;;;8.50;2.63;;;19.00;62.10;;;;;;4973794;28;20026;-75
2021/05/19 13:02:39;;;;;;;3.13;2.17;;;19.20;62.30;;;;;;4969563;28;20437;-77
2021/05/19 13:05:18;;;;;;;4.18;2.55;;;19.00;62.50;;;;;;4970723;28;20118;-80